createdAt,value
2022-09-18T00:00:56.702Z,1.80
2022-09-18T00:03:23.136Z,1.80
2022-09-18T00:05:49.641Z,1.75
2022-09-18T00:08:16.029Z,1.80
2022-09-18T00:10:45.546Z,1.20
2022-09-18T00:13:12.803Z,1.40
2022-09-18T00:15:39.604Z,1.35
2022-09-18T00:18:06.879Z,1.33
2022-09-18T00:20:35.226Z,1.48
2022-09-18T00:23:01.659Z,1.48
2022-09-18T00:25:28.459Z,1.27
2022-09-18T00:27:54.850Z,1.10
2022-09-18T00:30:21.370Z,1.27
2022-09-18T00:32:47.758Z,1.13
2022-09-18T00:35:14.167Z,1.40
2022-09-18T00:37:40.573Z,1.27
2022-09-18T00:40:07.480Z,1.17
2022-09-18T00:42:34.727Z,1.15
2022-09-18T00:45:01.115Z,1.20
2022-09-18T00:47:31.715Z,1.02
2022-09-18T00:50:16.666Z,1.30
2022-09-18T00:52:48.798Z,1.33
2022-09-18T00:55:18.436Z,1.13
2022-09-18T00:57:49.220Z,0.80
2022-09-18T01:00:15.918Z,0.90
2022-09-18T01:02:45.880Z,1.15
2022-09-18T01:05:14.715Z,1.40
2022-09-18T01:08:18.099Z,1.10
2022-09-18T01:10:56.788Z,1.05
2022-09-18T01:13:40.838Z,0.88
2022-09-18T01:16:27.892Z,0.90
2022-09-18T01:19:32.079Z,1.10
2022-09-18T01:22:21.014Z,0.70
2022-09-18T01:25:19.580Z,0.77
2022-09-18T01:28:16.525Z,0.80
2022-09-18T01:30:48.887Z,0.65
2022-09-18T01:33:25.747Z,0.82
2022-09-18T01:35:57.043Z,0.90
2022-09-18T01:38:35.969Z,0.60
2022-09-18T01:41:17.323Z,0.68
2022-09-18T01:43:48.355Z,0.80
2022-09-18T01:46:19.694Z,0.60
2022-09-18T01:48:58.292Z,1.00
2022-09-18T01:51:39.770Z,1.15
2022-09-18T01:54:14.090Z,1.15
2022-09-18T01:56:47.311Z,0.73
2022-09-18T01:59:20.507Z,0.82
2022-09-18T02:01:55.296Z,1.00
2022-09-18T02:04:26.923Z,1.27
2022-09-18T02:07:04.523Z,1.23
2022-09-18T02:09:31.309Z,1.58
2022-09-18T02:12:01.930Z,1.27
2022-09-18T02:14:38.135Z,1.90
2022-09-18T02:17:34.958Z,2.00
2022-09-18T02:20:10.954Z,2.15
2022-09-18T02:22:38.985Z,3.13
2022-09-18T02:25:07.450Z,2.78
2022-09-18T02:27:37.973Z,2.67
2022-09-18T02:30:06.448Z,2.72
2022-09-18T02:32:37.724Z,2.85
2022-09-18T02:35:08.812Z,2.53
2022-09-18T02:38:01.916Z,2.75
2022-09-18T02:40:56.627Z,2.38
2022-09-18T02:43:47.873Z,2.80
2022-09-18T02:46:31.011Z,2.60
2022-09-18T02:49:15.219Z,2.97
2022-09-18T02:52:14.087Z,3.55
2022-09-18T02:54:48.895Z,3.15
2022-09-18T02:57:21.486Z,3.63
2022-09-18T02:59:52.620Z,3.05
2022-09-18T03:02:21.303Z,3.50
2022-09-18T03:04:48.896Z,4.13
2022-09-18T03:07:22.108Z,4.70
2022-09-18T03:09:50.452Z,3.63
2022-09-18T03:12:16.879Z,4.57
2022-09-18T03:14:49.294Z,3.90
2022-09-18T03:17:16.639Z,3.33
2022-09-18T03:19:44.705Z,4.43
2022-09-18T03:22:12.231Z,3.65
2022-09-18T03:24:38.775Z,4.63
2022-09-18T03:27:06.992Z,4.57
2022-09-18T03:29:33.611Z,3.20
2022-09-18T03:32:01.690Z,5.80
2022-09-18T03:34:28.257Z,5.07
2022-09-18T03:36:55.044Z,3.75
2022-09-18T03:39:21.431Z,4.80
2022-09-18T03:41:50.087Z,4.43
2022-09-18T03:44:16.618Z,4.53
2022-09-18T03:46:44.700Z,4.45
2022-09-18T03:49:11.223Z,5.63
2022-09-18T03:51:39.704Z,4.25
2022-09-18T03:54:07.070Z,4.80
2022-09-18T03:56:48.971Z,4.78
2022-09-18T03:59:34.247Z,5.07
2022-09-18T04:02:21.065Z,4.35
2022-09-18T04:05:07.874Z,4.60
2022-09-18T04:08:06.567Z,5.22
2022-09-18T04:10:52.111Z,4.70
2022-09-18T04:13:18.649Z,4.15
2022-09-18T04:15:49.853Z,4.32
2022-09-18T04:18:17.214Z,3.77
2022-09-18T04:20:43.666Z,3.13
2022-09-18T04:23:12.580Z,3.35
2022-09-18T04:25:39.910Z,3.05
2022-09-18T04:28:06.472Z,3.47
2022-09-18T04:30:37.763Z,3.33
2022-09-18T04:33:04.449Z,3.33
2022-09-18T04:35:31.243Z,2.28
2022-09-18T04:37:57.624Z,3.22
2022-09-18T04:40:24.123Z,2.95
2022-09-18T04:42:50.996Z,3.40
2022-09-18T04:45:17.410Z,2.95
2022-09-18T04:47:46.418Z,3.08
2022-09-18T04:50:13.369Z,3.05
2022-09-18T04:52:59.801Z,2.05
2022-09-18T04:55:27.622Z,3.22
2022-09-18T04:57:55.278Z,3.30
2022-09-18T05:00:22.780Z,2.90
2022-09-18T05:02:49.396Z,3.03
2022-09-18T05:05:19.897Z,4.45
2022-09-18T05:07:46.690Z,2.40
2022-09-18T05:10:14.535Z,3.83
2022-09-18T05:12:41.582Z,3.13
2022-09-18T05:15:08.784Z,3.10
2022-09-18T05:17:35.277Z,2.88
2022-09-18T05:20:03.883Z,2.67
2022-09-18T05:22:37.382Z,3.15
2022-09-18T05:25:08.698Z,3.58
2022-09-18T05:27:35.354Z,3.17
2022-09-18T05:30:01.794Z,2.83
2022-09-18T05:32:59.048Z,2.85
2022-09-18T05:35:28.313Z,3.42
2022-09-18T05:37:55.280Z,3.13
2022-09-18T05:40:24.544Z,3.70
2022-09-18T05:42:54.872Z,3.08
2022-09-18T05:45:22.153Z,3.28
2022-09-18T05:48:05.394Z,3.05
2022-09-18T05:50:34.131Z,2.78
2022-09-18T05:53:02.421Z,3.45
2022-09-18T05:55:36.687Z,3.00
2022-09-18T05:58:05.338Z,3.45
2022-09-18T06:00:34.227Z,5.22
2022-09-18T06:03:13.277Z,3.67
2022-09-18T06:05:40.141Z,3.40
2022-09-18T06:08:12.141Z,3.58
2022-09-18T06:10:40.498Z,2.83
2022-09-18T06:13:10.554Z,2.83
2022-09-18T06:15:49.739Z,2.50
2022-09-18T06:18:20.737Z,3.80
2022-09-18T06:20:58.337Z,2.70
2022-09-18T06:23:28.655Z,2.45
2022-09-18T06:26:05.880Z,2.97
2022-09-18T06:28:34.363Z,2.80
2022-09-18T06:31:04.289Z,2.63
2022-09-18T06:33:43.259Z,3.17
2022-09-18T06:36:11.864Z,3.63
2022-09-18T06:38:43.926Z,2.75
2022-09-18T06:41:10.475Z,4.10
2022-09-18T06:43:50.059Z,2.88
2022-09-18T06:46:31.392Z,2.30
2022-09-18T06:49:04.637Z,3.35
2022-09-18T06:51:31.055Z,2.05
2022-09-18T06:54:04.444Z,2.67
2022-09-18T06:56:31.201Z,2.75
2022-09-18T06:58:57.608Z,2.80
2022-09-18T07:01:24.262Z,2.70
2022-09-18T07:04:02.259Z,2.75
2022-09-18T07:06:35.126Z,2.35
2022-09-18T07:09:01.585Z,2.85
2022-09-18T07:11:53.998Z,2.28
2022-09-18T07:14:27.551Z,2.10
2022-09-18T07:16:58.246Z,2.00
2022-09-18T07:19:24.688Z,2.30
2022-09-18T07:21:52.518Z,2.38
2022-09-18T07:24:19.154Z,2.58
2022-09-18T07:26:45.670Z,2.45
2022-09-18T07:29:12.086Z,2.90
2022-09-18T07:31:38.691Z,1.80
2022-09-18T07:34:09.197Z,2.67
2022-09-18T07:36:35.649Z,2.22
2022-09-18T07:39:03.162Z,2.20
2022-09-18T07:41:38.614Z,2.65
2022-09-18T07:44:05.882Z,4.10
2022-09-18T07:46:32.398Z,3.67
2022-09-18T07:49:02.973Z,2.30
2022-09-18T07:51:29.771Z,2.92
2022-09-18T07:53:58.375Z,2.30
2022-09-18T07:56:51.468Z,2.58
2022-09-18T07:59:21.060Z,2.72
2022-09-18T08:01:55.637Z,2.92
2022-09-18T08:04:24.028Z,2.63
2022-09-18T08:07:04.083Z,1.90
2022-09-18T08:09:53.851Z,2.58
2022-09-18T08:12:27.565Z,2.95
2022-09-18T08:15:08.855Z,2.63
2022-09-18T08:17:52.596Z,2.28
2022-09-18T08:20:29.673Z,2.75
2022-09-18T08:23:11.252Z,1.95
2022-09-18T08:25:39.760Z,2.17
2022-09-18T08:28:07.160Z,2.40
2022-09-18T08:30:45.203Z,2.45
2022-09-18T08:33:12.568Z,2.97
2022-09-18T08:35:40.273Z,4.05
2022-09-18T08:38:18.128Z,2.28
2022-09-18T08:41:28.743Z,2.63
2022-09-18T08:44:01.880Z,2.33
2022-09-18T08:46:48.311Z,2.55
2022-09-18T08:49:44.164Z,2.30
2022-09-18T08:52:21.082Z,2.10
2022-09-18T08:55:04.768Z,2.17
2022-09-18T08:58:02.971Z,2.25
2022-09-18T09:00:41.861Z,2.95
2022-09-18T09:03:24.932Z,1.85
2022-09-18T09:05:56.984Z,3.13
2022-09-18T09:08:38.075Z,2.35
2022-09-18T09:13:58.234Z,2.63
2022-09-18T09:16:44.260Z,2.58
2022-09-18T09:19:25.192Z,2.60
2022-09-18T09:22:17.743Z,2.10
2022-09-18T09:25:03.608Z,2.35
2022-09-18T09:27:49.994Z,2.47
2022-09-18T09:30:57.124Z,2.13
2022-09-18T09:34:26.618Z,2.15
2022-09-18T09:37:04.474Z,1.42
2022-09-18T09:39:39.640Z,2.45
2022-09-18T09:42:17.832Z,2.33
2022-09-18T09:45:15.833Z,2.03
2022-09-18T09:47:55.391Z,2.42
2022-09-18T09:50:45.991Z,2.40
2022-09-18T09:53:13.338Z,2.35
2022-09-18T09:55:49.429Z,2.70
2022-09-18T09:58:42.580Z,2.83
2022-09-18T10:01:16.523Z,1.67
2022-09-18T10:04:18.469Z,2.38
2022-09-18T10:06:56.890Z,2.30
2022-09-18T10:09:39.863Z,2.67
2022-09-18T10:12:33.251Z,1.95
2022-09-18T10:15:30.045Z,2.60
2022-09-18T10:18:01.291Z,2.47
2022-09-18T10:20:30.540Z,1.63
2022-09-18T10:23:05.496Z,1.60
2022-09-18T10:26:02.507Z,1.50
2022-09-18T10:28:30.625Z,2.92
2022-09-18T10:31:02.607Z,2.40
2022-09-18T10:33:50.140Z,2.33
2022-09-18T10:36:42.582Z,1.88
2022-09-18T10:39:31.367Z,1.83
2022-09-18T10:42:06.673Z,1.92
2022-09-18T10:44:37.874Z,1.70
2022-09-18T10:47:19.403Z,2.20
2022-09-18T10:50:16.782Z,2.17
2022-09-18T10:52:46.475Z,1.65
2022-09-18T10:55:26.326Z,2.10
2022-09-18T10:57:59.326Z,2.47
2022-09-18T11:00:26.926Z,1.80
2022-09-18T11:05:33.432Z,1.88
2022-09-18T11:08:05.624Z,2.10
2022-09-18T11:10:34.065Z,1.67
2022-09-18T11:13:02.521Z,1.80
2022-09-18T11:15:52.890Z,1.90
2022-09-18T11:18:20.037Z,1.60
2022-09-18T11:20:47.508Z,1.58
2022-09-18T11:23:18.350Z,1.70
2022-09-18T11:25:47.074Z,1.10
2022-09-18T11:28:28.533Z,1.52
2022-09-18T11:31:04.088Z,1.27
2022-09-18T11:33:39.928Z,1.20
2022-09-18T11:36:10.848Z,1.50
2022-09-18T11:38:42.335Z,1.25
2022-09-18T11:41:11.189Z,1.55
2022-09-18T11:43:43.659Z,2.33
2022-09-18T11:46:32.493Z,1.55
2022-09-18T11:49:05.101Z,1.63
2022-09-18T11:51:56.721Z,1.60
2022-09-18T11:54:31.615Z,2.38
2022-09-18T11:57:04.888Z,2.10
2022-09-18T11:59:46.507Z,2.00
2022-09-18T12:02:30.991Z,1.90
2022-09-18T12:05:19.032Z,1.50
2022-09-18T12:08:22.836Z,2.50
2022-09-18T12:11:10.711Z,1.20
2022-09-18T12:13:59.439Z,1.60
2022-09-18T12:16:43.986Z,0.93
2022-09-18T12:19:30.989Z,1.35
2022-09-18T12:22:03.472Z,1.13
2022-09-18T12:24:30.049Z,0.93
2022-09-18T12:27:27.953Z,0.90
2022-09-18T12:30:05.837Z,1.20
2022-09-18T12:32:58.694Z,1.00
2022-09-18T12:35:39.260Z,1.45
2022-09-18T12:38:24.150Z,1.05
2022-09-18T12:41:29.006Z,1.60
2022-09-18T12:44:06.040Z,1.00
2022-09-18T12:46:39.362Z,1.08
2022-09-18T12:49:17.534Z,1.05
2022-09-18T12:51:48.196Z,1.30
2022-09-18T12:54:49.490Z,1.45
2022-09-18T12:57:42.421Z,0.82
2022-09-18T13:00:12.537Z,1.50
2022-09-18T13:03:12.905Z,1.17
2022-09-18T13:05:51.614Z,1.20
2022-09-18T13:08:23.802Z,1.23
2022-09-18T13:10:59.652Z,1.30
2022-09-18T13:13:38.090Z,1.50
2022-09-18T13:16:11.458Z,1.20
2022-09-18T13:18:49.907Z,0.77
2022-09-18T13:21:27.578Z,1.20
2022-09-18T13:23:55.501Z,1.98
2022-09-18T13:26:25.039Z,1.15
2022-09-18T13:28:51.449Z,1.00
2022-09-18T13:31:27.771Z,0.68
2022-09-18T13:34:01.291Z,0.90
2022-09-18T13:36:35.680Z,0.77
2022-09-18T13:39:06.489Z,0.95
2022-09-18T13:41:49.217Z,0.95
2022-09-18T13:44:30.947Z,0.80
2022-09-18T13:47:11.025Z,0.95
2022-09-18T13:49:54.176Z,1.00
2022-09-18T13:52:32.875Z,0.95
2022-09-18T13:55:16.225Z,1.05
2022-09-18T13:57:44.111Z,1.10
2022-09-18T14:00:19.291Z,0.95
2022-09-18T14:03:07.433Z,1.02
2022-09-18T14:05:38.394Z,0.82
2022-09-18T14:11:14.601Z,0.90
2022-09-18T14:13:58.834Z,1.10
2022-09-18T14:16:30.231Z,0.70
2022-09-18T14:19:01.741Z,0.82
2022-09-18T14:21:31.936Z,0.90
2022-09-18T14:24:25.176Z,0.97
2022-09-18T14:27:00.230Z,1.00
2022-09-18T14:29:29.565Z,0.90
2022-09-18T14:31:58.083Z,1.33
2022-09-18T14:34:40.406Z,1.50
2022-09-18T14:37:15.813Z,0.80
2022-09-18T14:39:42.195Z,0.60
2022-09-18T14:42:14.050Z,0.85
2022-09-18T14:44:47.666Z,0.90
2022-09-18T14:47:21.006Z,0.90
2022-09-18T14:49:49.163Z,1.10
2022-09-18T14:52:24.795Z,1.00
2022-09-18T14:54:54.011Z,1.25
2022-09-18T14:57:24.331Z,1.13
2022-09-18T14:59:53.086Z,1.00
2022-09-18T15:02:22.486Z,2.22
2022-09-18T15:04:49.364Z,1.30
2022-09-18T15:07:21.088Z,1.20
2022-09-18T15:09:50.229Z,1.15
2022-09-18T15:12:19.762Z,1.20
2022-09-18T15:14:47.834Z,1.05
2022-09-18T15:17:20.790Z,0.75
2022-09-18T15:20:14.348Z,1.00
2022-09-18T15:22:41.171Z,1.02
2022-09-18T15:25:19.833Z,1.80
2022-09-18T15:27:46.819Z,0.75
2022-09-18T15:30:19.918Z,0.90
2022-09-18T15:32:51.029Z,0.75
2022-09-18T15:35:27.206Z,0.80
2022-09-18T15:38:00.857Z,1.13
2022-09-18T15:40:33.499Z,1.23
2022-09-18T15:43:03.456Z,1.40
2022-09-18T15:45:32.055Z,1.20
2022-09-18T15:48:00.667Z,1.05
2022-09-18T15:50:36.115Z,0.77
2022-09-18T15:53:21.483Z,1.35
2022-09-18T15:55:55.891Z,0.90
2022-09-18T15:58:42.380Z,1.05
2022-09-18T16:01:16.621Z,1.40
2022-09-18T16:03:43.574Z,1.13
2022-09-18T16:06:22.923Z,1.17
2022-09-18T16:08:53.285Z,1.65
2022-09-18T16:11:44.709Z,0.93
2022-09-18T16:14:39.567Z,1.42
2022-09-18T16:17:33.730Z,0.95
2022-09-18T16:20:28.346Z,0.93
2022-09-18T16:23:05.146Z,1.77
2022-09-18T16:25:35.771Z,1.20
2022-09-18T16:28:06.863Z,1.27
2022-09-18T16:33:13.914Z,1.88
2022-09-18T16:35:40.303Z,1.20
2022-09-18T16:38:08.343Z,1.33
2022-09-18T16:40:35.050Z,0.90
2022-09-18T16:43:01.486Z,1.02
2022-09-18T16:45:27.899Z,0.98
2022-09-18T16:48:00.343Z,0.90
2022-09-18T16:50:27.159Z,1.25
2022-09-18T16:52:54.043Z,1.52
2022-09-18T16:55:22.783Z,0.90
2022-09-18T16:57:51.248Z,1.08
2022-09-18T17:00:18.108Z,1.15
2022-09-18T17:02:44.595Z,1.02
2022-09-18T17:05:11.083Z,1.27
2022-09-18T17:07:37.694Z,1.73
2022-09-18T17:10:04.752Z,1.20
2022-09-18T17:12:31.211Z,1.40
2022-09-18T17:14:57.607Z,1.42
2022-09-18T17:17:24.010Z,1.80
2022-09-18T17:19:50.398Z,1.35
2022-09-18T17:22:19.039Z,1.33
2022-09-18T17:24:48.735Z,1.27
2022-09-18T17:27:15.270Z,1.35
2022-09-18T17:29:41.654Z,1.58
2022-09-18T17:32:08.046Z,1.15
2022-09-18T17:34:34.449Z,1.20
2022-09-18T17:37:01.566Z,1.10
2022-09-18T17:39:28.416Z,1.45
2022-09-18T17:41:55.659Z,1.58
2022-09-18T17:44:24.122Z,1.65
2022-09-18T17:46:52.683Z,1.40
2022-09-18T17:49:20.256Z,1.30
2022-09-18T17:51:47.507Z,1.00
2022-09-18T17:54:13.926Z,1.40
2022-09-18T17:56:40.519Z,2.00
2022-09-18T17:59:09.277Z,1.20
2022-09-18T18:01:38.182Z,1.60
2022-09-18T18:04:05.203Z,1.55
2022-09-18T18:06:32.371Z,1.27
2022-09-18T18:08:58.989Z,1.27
2022-09-18T18:11:25.604Z,1.40
2022-09-18T18:13:53.530Z,1.52
2022-09-18T18:16:23.428Z,1.40
2022-09-18T18:18:52.839Z,1.60
2022-09-18T18:21:19.530Z,4.35
2022-09-18T18:23:46.123Z,4.38
2022-09-18T18:26:13.283Z,2.95
2022-09-18T18:28:40.997Z,2.08
2022-09-18T18:31:11.975Z,2.42
2022-09-18T18:36:13.038Z,1.65
2022-09-18T18:38:40.578Z,1.83
2022-09-18T18:41:07.463Z,1.33
2022-09-18T18:43:35.239Z,2.38
2022-09-18T18:46:02.527Z,1.23
2022-09-18T18:48:33.815Z,1.13
2022-09-18T18:51:05.449Z,1.17
2022-09-18T18:53:31.965Z,1.20
2022-09-18T18:56:06.463Z,1.42
2022-09-18T18:58:33.099Z,1.35
2022-09-18T19:01:13.169Z,1.90
2022-09-18T19:03:42.948Z,1.87
2022-09-18T19:06:14.588Z,2.08
2022-09-18T19:08:46.303Z,1.67
2022-09-18T19:11:18.567Z,1.73
2022-09-18T19:13:52.897Z,2.55
2022-09-18T19:16:19.725Z,2.55
2022-09-18T19:18:52.649Z,1.65
2022-09-18T19:21:20.617Z,1.70
2022-09-18T19:23:56.266Z,1.80
2022-09-18T19:26:24.697Z,1.63
2022-09-18T19:28:53.427Z,1.70
2022-09-18T19:31:20.695Z,1.45
2022-09-18T19:33:52.305Z,1.10
2022-09-18T19:36:23.663Z,1.80
2022-09-18T19:38:55.416Z,1.83
2022-09-18T19:42:06.177Z,1.35
2022-09-18T19:44:42.662Z,1.55
2022-09-18T19:47:27.742Z,1.80
2022-09-18T19:49:56.477Z,1.40
2022-09-18T19:52:25.775Z,1.80
2022-09-18T19:54:54.478Z,1.67
2022-09-18T19:57:23.117Z,2.15
2022-09-18T19:59:54.254Z,2.00
2022-09-18T20:02:22.256Z,2.00
2022-09-18T20:04:48.679Z,2.10
2022-09-18T20:07:15.118Z,1.52
2022-09-18T20:09:41.567Z,1.55
2022-09-18T20:12:08.981Z,1.67
2022-09-18T20:14:35.363Z,1.50
2022-09-18T20:17:01.746Z,1.60
2022-09-18T20:19:28.229Z,1.85
2022-09-18T20:21:54.609Z,2.47
2022-09-18T20:24:21.018Z,1.90
2022-09-18T20:26:47.443Z,1.95
2022-09-18T20:29:16.183Z,1.80
2022-09-18T20:31:43.026Z,1.75
2022-09-18T20:34:10.953Z,1.70
2022-09-18T20:36:38.136Z,1.70
2022-09-18T20:39:05.235Z,1.65
2022-09-18T20:41:31.813Z,1.88
2022-09-18T20:44:04.704Z,1.90
2022-09-18T20:46:36.340Z,1.98
2022-09-18T20:49:03.766Z,2.00
2022-09-18T20:51:34.792Z,1.67
2022-09-18T20:54:02.662Z,2.08
2022-09-18T20:56:34.461Z,2.58
2022-09-18T20:59:04.739Z,1.42
2022-09-18T21:01:34.540Z,1.90
2022-09-18T21:04:02.071Z,1.98
2022-09-18T21:06:33.364Z,1.85
2022-09-18T21:09:04.627Z,2.00
2022-09-18T21:11:34.482Z,2.50
2022-09-18T21:14:03.269Z,2.20
2022-09-18T21:16:33.167Z,1.90
2022-09-18T21:19:01.815Z,1.55
2022-09-18T21:21:30.940Z,1.88
2022-09-18T21:24:01.888Z,2.50
2022-09-18T21:26:39.429Z,2.10
2022-09-18T21:29:22.712Z,1.90
2022-09-18T21:31:51.984Z,1.73
2022-09-18T21:34:24.101Z,1.95
2022-09-18T21:37:05.525Z,1.73
2022-09-18T21:39:32.384Z,1.77
2022-09-18T21:42:00.460Z,1.85
2022-09-18T21:44:29.516Z,2.00
2022-09-18T21:46:58.807Z,1.83
2022-09-18T21:49:25.510Z,1.73
2022-09-18T21:51:55.543Z,2.17
2022-09-18T21:54:23.370Z,1.65
2022-09-18T21:56:51.724Z,2.10
2022-09-18T21:59:19.193Z,2.30
2022-09-18T22:01:47.660Z,2.45
2022-09-18T22:04:14.585Z,2.30
2022-09-18T22:06:43.550Z,1.90
2022-09-18T22:09:22.973Z,1.98
2022-09-18T22:11:50.601Z,2.30
2022-09-18T22:14:20.655Z,2.72
2022-09-18T22:16:48.267Z,2.53
2022-09-18T22:19:16.685Z,2.50
2022-09-18T22:21:46.517Z,2.53
2022-09-18T22:24:17.794Z,2.50
2022-09-18T22:26:48.502Z,1.90
2022-09-18T22:29:20.632Z,2.10
2022-09-18T22:31:47.716Z,3.60
2022-09-18T22:34:17.295Z,2.22
2022-09-18T22:36:47.915Z,2.45
2022-09-18T22:39:15.830Z,2.47
2022-09-18T22:41:42.886Z,2.47
2022-09-18T22:44:09.861Z,2.35
2022-09-18T22:46:38.081Z,2.55
2022-09-18T22:49:05.732Z,2.58
2022-09-18T22:51:32.190Z,3.05
2022-09-18T22:54:07.405Z,2.92
2022-09-18T22:56:40.790Z,3.22
2022-09-18T22:59:07.667Z,2.33
2022-09-18T23:01:37.401Z,2.50
2022-09-18T23:04:05.211Z,2.50
2022-09-18T23:06:33.484Z,1.90
2022-09-18T23:09:00.761Z,2.55
2022-09-18T23:11:30.867Z,2.25
2022-09-18T23:13:59.770Z,2.23
2022-09-18T23:16:29.329Z,2.20
2022-09-18T23:19:01.355Z,2.72
2022-09-18T23:21:32.009Z,2.38
2022-09-18T23:24:07.085Z,2.33
2022-09-18T23:26:38.525Z,2.60
2022-09-18T23:29:14.121Z,2.67
2022-09-18T23:31:43.226Z,2.10
2022-09-18T23:34:15.196Z,2.35
2022-09-18T23:36:44.628Z,2.10
2022-09-18T23:39:14.675Z,2.03
2022-09-18T23:41:41.762Z,2.40
2022-09-18T23:44:09.878Z,2.53
2022-09-18T23:46:36.979Z,2.60
2022-09-18T23:49:04.762Z,2.70
2022-09-18T23:51:33.740Z,2.30
2022-09-18T23:54:01.635Z,2.10
2022-09-18T23:56:30.902Z,2.30
2022-09-18T23:59:00.883Z,2.03
